Time;durP1;ratioP1;P1;durP2;ratioP2;P2;SDS_P1;SDS_P2;PMS_P1;PMS_P2;Temp;Humidity;BMP_temperature;BMP_pressure;BME280_temperature;BME280_humidity;BME280_pressure;Samples;Min_cycle;Max_cycle;Signal;HPM_P1;HPM_P2
2021/06/18 02:06:28;;;;;;;44.77;11.27;;;20.90;99.90;;;;;;6130148;23;20437;-79
2021/06/18 03:00:54;;;;;;;44.53;25.97;;;19.50;99.90;;;;;;6156753;23;20433;-76
2021/06/18 03:03:24;;;;;;;45.03;23.27;;;19.40;99.90;;;;;;6155583;23;20402;-77
2021/06/18 03:05:52;;;;;;;45.90;23.20;;;19.60;99.90;;;;;;6156685;23;20399;-77
2021/06/18 03:08:22;;;;;;;46.33;22.90;;;19.50;99.90;;;;;;6155913;23;20434;-76
2021/06/18 03:10:51;;;;;;;46.23;25.70;;;19.50;99.90;;;;;;6156408;23;20489;-77
2021/06/18 03:13:22;;;;;;;45.70;22.90;;;19.70;99.90;;;;;;6156685;23;20398;-78
2021/06/18 03:15:49;;;;;;;43.10;23.37;;;19.70;99.90;;;;;;6156577;23;20493;-77
2021/06/18 03:18:21;;;;;;;44.63;20.00;;;19.80;99.90;;;;;;6154668;23;20401;-77
2021/06/18 03:20:52;;;;;;;43.70;20.90;;;19.90;99.90;;;;;;6156604;23;20458;-77
2021/06/18 03:23:22;;;;;;;46.60;20.27;;;20.10;99.90;;;;;;6156014;23;20402;-77
2021/06/18 03:25:49;;;;;;;46.90;17.50;;;20.00;99.90;;;;;;6156736;23;20957;-79
2021/06/18 03:28:17;;;;;;;43.70;14.90;;;20.20;99.90;;;;;;6156605;23;20735;-80
2021/06/18 03:30:48;;;;;;;49.27;18.57;;;20.20;99.90;;;;;;6156207;23;20520;-77
2021/06/18 03:33:17;;;;;;;44.93;18.07;;;20.30;99.90;;;;;;6155028;23;20402;-78
2021/06/18 03:35:46;;;;;;;48.77;14.90;;;20.30;99.90;;;;;;6156298;23;20402;-78
2021/06/18 03:38:14;;;;;;;49.60;17.00;;;20.30;99.90;;;;;;6156067;23;20433;-77
2021/06/18 03:40:42;;;;;;;46.70;16.60;;;20.50;99.90;;;;;;6156105;23;20384;-78
2021/06/18 03:43:10;;;;;;;48.80;15.87;;;20.40;99.90;;;;;;6156306;23;20402;-77
2021/06/18 03:45:41;;;;;;;51.30;14.40;;;20.40;99.90;;;;;;6155660;23;20963;-77
2021/06/18 03:48:11;;;;;;;48.70;15.03;;;20.40;99.90;;;;;;6154210;23;20438;-77
2021/06/18 03:50:39;;;;;;;47.83;16.50;;;20.40;99.90;;;;;;6156222;23;20480;-77
2021/06/18 03:53:08;;;;;;;49.30;17.47;;;20.40;99.90;;;;;;6155924;23;20456;-77
2021/06/18 03:55:35;;;;;;;48.17;18.23;;;20.40;99.90;;;;;;6156195;23;20458;-78
2021/06/18 04:00:56;;;;;;;47.00;17.30;;;20.30;99.90;;;;;;6126615;23;20545;-80
2021/06/18 04:03:24;;;;;;;48.87;17.40;;;20.50;99.90;;;;;;6135247;23;20485;-81
2021/06/18 04:05:57;;;;;;;49.77;16.13;;;20.50;99.90;;;;;;6126199;23;20406;-78
2021/06/18 04:08:24;;;;;;;50.23;17.57;;;20.60;99.90;;;;;;6126754;23;20441;-80
2021/06/18 04:10:51;;;;;;;52.70;15.60;;;20.60;99.90;;;;;;6126357;23;20908;-80
2021/06/18 04:13:19;;;;;;;53.87;16.30;;;20.60;99.90;;;;;;6126507;23;20490;-79
2021/06/18 04:15:47;;;;;;;52.30;16.67;;;20.70;99.90;;;;;;6126393;23;20872;-80
2021/06/18 04:18:19;;;;;;;48.90;16.93;;;20.70;99.90;;;;;;6125277;23;20425;-79
2021/06/18 04:20:46;;;;;;;46.77;15.57;;;20.70;99.90;;;;;;6136217;23;20397;-80
2021/06/18 04:23:14;;;;;;;52.17;15.90;;;20.90;99.90;;;;;;6126561;23;20407;-80
2021/06/18 04:25:41;;;;;;;49.80;15.20;;;21.00;99.90;;;;;;6126033;23;20403;-80
2021/06/18 04:28:08;;;;;;;48.93;15.40;;;21.00;99.90;;;;;;6125981;23;20438;-80
2021/06/18 04:30:35;;;;;;;50.90;14.53;;;21.20;99.90;;;;;;6125939;23;20445;-81
2021/06/18 04:33:02;;;;;;;57.80;15.63;;;21.30;99.90;;;;;;6125127;23;20735;-82
2021/06/18 04:35:28;;;;;;;55.93;15.33;;;21.40;99.90;;;;;;6126383;23;20428;-81
2021/06/18 04:37:55;;;;;;;52.97;13.97;;;21.60;99.90;;;;;;6126709;23;20407;-82
2021/06/18 04:40:23;;;;;;;57.43;15.53;;;21.70;99.90;;;;;;6126624;23;20700;-81
2021/06/18 04:42:50;;;;;;;54.80;16.80;;;21.90;99.90;;;;;;6126426;23;20399;-81
2021/06/18 04:45:18;;;;;;;64.23;19.30;;;22.00;99.90;;;;;;6126286;23;20490;-83
2021/06/18 04:47:45;;;;;;;58.40;16.50;;;22.20;99.90;;;;;;6125038;23;20518;-82
2021/06/18 04:50:12;;;;;;;57.77;16.40;;;22.40;99.90;;;;;;6126435;23;20441;-81
2021/06/18 04:52:41;;;;;;;62.37;17.40;;;22.40;99.90;;;;;;6126529;23;20410;-82
2021/06/18 04:55:11;;;;;;;60.93;17.50;;;22.50;99.90;;;;;;6125844;23;20780;-81
2021/06/18 04:57:39;;;;;;;61.13;15.77;;;22.60;99.90;;;;;;6125801;23;20403;-80
2021/06/18 05:00:07;;;;;;;64.37;17.00;;;22.80;99.90;;;;;;6125888;23;20442;-82
2021/06/18 05:02:34;;;;;;;60.90;19.07;;;23.00;99.90;;;;;;6124682;23;20910;-81
2021/06/18 05:05:01;;;;;;;65.40;24.63;;;23.10;99.90;;;;;;6126256;23;20424;-84
2021/06/18 05:07:28;;;;;;;65.50;28.30;;;23.20;99.90;;;;;;6126121;23;20431;-81
2021/06/18 05:09:55;;;;;;;68.07;30.03;;;23.30;99.90;;;;;;6135629;23;20438;-84
2021/06/18 05:12:22;;;;;;;67.33;29.60;;;23.30;99.90;;;;;;6136263;23;20465;-82
2021/06/18 05:14:50;;;;;;;74.60;35.80;;;23.30;99.90;;;;;;6126289;23;20410;-82
2021/06/18 05:17:17;;;;;;;70.33;37.37;;;23.50;99.90;;;;;;6124834;23;20413;-85
2021/06/18 05:19:44;;;;;;;78.13;49.53;;;23.60;99.90;;;;;;6125896;23;20407;-85
2021/06/18 05:22:11;;;;;;;84.17;74.10;;;24.00;99.90;;;;;;6125835;23;20403;-85
2021/06/18 05:24:37;;;;;;;115.80;105.10;;;24.10;99.90;;;;;;6125231;23;20403;-82
2021/06/18 05:27:04;;;;;;;135.33;124.00;;;24.70;98.60;;;;;;6125583;23;20414;-81
2021/06/18 05:29:31;;;;;;;107.60;97.33;;;25.00;91.00;;;;;;6125913;23;20828;-81
2021/06/18 05:31:59;;;;;;;111.10;100.43;;;25.40;74.90;;;;;;6124051;23;20403;-85
2021/06/18 05:34:26;;;;;;;127.47;116.07;;;25.70;70.80;;;;;;6125077;23;20381;-82
2021/06/18 05:36:53;;;;;;;93.93;83.73;;;25.90;74.30;;;;;;6125583;23;20401;-83
2021/06/18 05:39:20;;;;;;;86.23;60.83;;;26.50;58.40;;;;;;6126104;23;20403;-81
2021/06/18 05:41:47;;;;;;;82.60;46.53;;;26.90;51.90;;;;;;6126255;23;20392;-82
2021/06/18 05:44:13;;;;;;;89.27;68.50;;;27.60;48.50;;;;;;6125181;23;20870;-86
2021/06/18 05:46:40;;;;;;;104.63;93.37;;;28.10;39.40;;;;;;6124478;23;20378;-83
2021/06/18 05:49:08;;;;;;;96.33;76.43;;;28.50;40.50;;;;;;6125786;23;20435;-81
2021/06/18 05:51:35;;;;;;;85.30;49.20;;;28.60;34.70;;;;;;6125767;23;20429;-82
2021/06/18 05:54:02;;;;;;;86.30;49.20;;;28.80;31.40;;;;;;6126143;23;20510;-78
2021/06/18 05:56:29;;;;;;;99.83;85.37;;;29.50;31.50;;;;;;6127086;23;20493;-79
2021/06/18 05:58:56;;;;;;;210.97;195.13;;;29.60;29.50;;;;;;6127013;23;20385;-82
2021/06/18 06:01:24;;;;;;;87.47;43.13;;;29.50;25.70;;;;;;6125856;23;20413;-79
2021/06/18 06:03:53;;;;;;;204.60;189.23;;;29.30;25.10;;;;;;6125112;23;20675;-84
2021/06/18 06:06:22;;;;;;;141.77;128.37;;;29.30;25.60;;;;;;6125487;23;20407;-82
2021/06/18 06:08:51;;;;;;;96.93;60.07;;;29.60;25.20;;;;;;6126386;23;20439;-84
2021/06/18 06:11:19;;;;;;;89.07;61.37;;;29.30;25.50;;;;;;6126190;23;20861;-82
2021/06/18 06:13:46;;;;;;;90.30;54.10;;;28.90;24.90;;;;;;6126609;23;20468;-81
2021/06/18 06:16:13;;;;;;;123.90;112.00;;;28.90;26.50;;;;;;6127447;23;20770;-82
2021/06/18 06:18:40;;;;;;;92.53;63.17;;;29.10;27.30;;;;;;6125538;23;20978;-82
2021/06/18 06:21:07;;;;;;;95.87;73.57;;;29.50;25.10;;;;;;6127422;23;20402;-83
2021/06/18 06:23:35;;;;;;;149.77;137.10;;;29.70;22.40;;;;;;6127127;23;20409;-81
2021/06/18 06:26:02;;;;;;;158.43;145.23;;;29.70;18.40;;;;;;6127131;23;20392;-84
2021/06/18 06:28:29;;;;;;;147.37;134.17;;;29.50;23.60;;;;;;6126917;23;20450;-83
2021/06/18 06:30:56;;;;;;;121.23;109.23;;;29.70;22.70;;;;;;6126430;23;20493;-83
2021/06/18 06:33:23;;;;;;;98.97;74.13;;;29.40;23.90;;;;;;6124793;23;20403;-82
2021/06/18 06:35:50;;;;;;;97.70;76.50;;;29.80;21.20;;;;;;6126666;23;20410;-83
2021/06/18 06:38:19;;;;;;;103.30;89.57;;;29.40;20.30;;;;;;6126460;23;20384;-81
2021/06/18 06:40:48;;;;;;;99.30;76.90;;;29.40;23.40;;;;;;6126981;23;20374;-84
2021/06/18 06:43:14;;;;;;;97.10;74.43;;;28.80;26.60;;;;;;6127123;23;20405;-78
2021/06/18 06:45:41;;;;;;;94.77;71.63;;;28.40;26.90;;;;;;6126913;23;20482;-81
2021/06/18 06:48:09;;;;;;;99.40;70.87;;;28.40;26.60;;;;;;6125090;23;20698;-83
2021/06/18 06:50:36;;;;;;;100.93;69.07;;;28.40;27.10;;;;;;6126734;23;20450;-88
2021/06/18 06:53:03;;;;;;;92.90;64.40;;;28.50;26.60;;;;;;6136285;23;20875;-88
2021/06/18 06:55:29;;;;;;;101.80;65.07;;;28.50;24.60;;;;;;6127043;23;20410;-85
2021/06/18 06:57:58;;;;;;;98.87;72.40;;;28.40;25.70;;;;;;6136290;23;20956;-84
2021/06/18 07:00:24;;;;;;;105.60;88.67;;;28.20;25.50;;;;;;6126618;23;20521;-83
2021/06/18 07:02:51;;;;;;;118.83;106.70;;;28.00;29.80;;;;;;6125731;23;20384;-85
2021/06/18 07:05:18;;;;;;;113.73;101.87;;;28.10;28.50;;;;;;6137041;23;20438;-86
2021/06/18 07:07:45;;;;;;;133.97;121.83;;;28.20;29.80;;;;;;6136688;23;20817;-90
2021/06/18 07:10:12;;;;;;;132.83;120.90;;;27.80;30.00;;;;;;6136588;23;20459;-86
2021/06/18 07:12:39;;;;;;;113.57;102.47;;;27.50;36.10;;;;;;6126756;23;20412;-89
2021/06/18 07:15:09;;;;;;;125.83;113.80;;;27.30;41.60;;;;;;6136491;23;20384;-82
2021/06/18 07:17:36;;;;;;;103.23;92.47;;;27.10;45.30;;;;;;6120472;23;20464;-85
2021/06/18 07:20:04;;;;;;;100.13;83.97;;;27.10;50.50;;;;;;6134839;23;20397;-85
2021/06/18 07:22:31;;;;;;;87.20;56.43;;;27.10;48.20;;;;;;6124866;23;20406;-85
2021/06/18 07:24:59;;;;;;;81.03;44.93;;;27.50;42.60;;;;;;6124191;23;21246;-85
2021/06/18 07:27:26;;;;;;;81.30;45.63;;;27.90;43.50;;;;;;6125252;23;20890;-83
2021/06/18 07:29:54;;;;;;;85.33;49.83;;;28.10;42.20;;;;;;6125132;23;20497;-79
2021/06/18 07:32:23;;;;;;;93.17;68.13;;;28.40;36.50;;;;;;6123894;23;20409;-79
